Time;durP1;ratioP1;P1;durP2;ratioP2;P2;SDS_P1;SDS_P2;PMS_P1;PMS_P2;Temp;Humidity;BMP_temperature;BMP_pressure;BME280_temperature;BME280_humidity;BME280_pressure;Samples;Min_cycle;Max_cycle;Signal;HPM_P1;HPM_P2
2022/04/14 00:02:43;;;;;;;;;8.75;6.00;;;;;;;;5080003;28;51379;-52
2022/04/14 00:05:27;;;;;;;;;4.00;3.00;;;;;;;;5079640;28;51129;-49
2022/04/14 00:08:12;;;;;;;;;8.00;5.25;;;;;;;;5080018;28;51136;-49
2022/04/14 00:10:58;;;;;;;;;8.50;6.00;;;;;;;;5079268;28;51504;-49
2022/04/14 00:13:42;;;;;;;;;7.75;4.75;;;;;;;;5079964;28;51209;-51
2022/04/14 00:16:26;;;;;;;;;9.00;5.50;;;;;;;;5079616;28;51552;-48
2022/04/14 00:19:10;;;;;;;;;3.00;3.00;;;;;;;;5078904;28;51172;-49
2022/04/14 00:21:55;;;;;;;;;4.00;3.00;;;;;;;;5079716;28;51051;-51
2022/04/14 00:24:39;;;;;;;;;4.75;4.00;;;;;;;;5079664;28;51314;-50
2022/04/14 00:27:30;;;;;;;;;9.00;5.50;;;;;;;;5079493;28;51157;-50
2022/04/14 00:30:21;;;;;;;;;5.25;5.25;;;;;;;;5079434;28;51192;-49
2022/04/14 00:33:05;;;;;;;;;8.75;4.50;;;;;;;;5079793;28;51138;-51
2022/04/14 00:35:49;;;;;;;;;2.75;2.75;;;;;;;;5079318;28;51497;-48
2022/04/14 00:38:34;;;;;;;;;6.25;3.50;;;;;;;;5079076;28;51112;-52
2022/04/14 00:41:18;;;;;;;;;5.50;4.50;;;;;;;;5079450;28;51405;-47
2022/04/14 00:44:05;;;;;;;;;3.50;3.50;;;;;;;;5079239;28;51127;-50
2022/04/14 00:46:53;;;;;;;;;8.00;4.75;;;;;;;;5079195;28;51086;-52
2022/04/14 00:49:38;;;;;;;;;5.25;4.00;;;;;;;;5079184;28;51214;-49
2022/04/14 00:52:23;;;;;;;;;9.25;3.50;;;;;;;;5078827;28;51374;-49
2022/04/14 00:55:08;;;;;;;;;7.75;5.00;;;;;;;;5079129;28;51117;-52
2022/04/14 00:57:53;;;;;;;;;5.00;4.75;;;;;;;;5078965;28;51091;-51
2022/04/14 01:00:38;;;;;;;;;5.25;3.75;;;;;;;;5078847;27;51090;-50
2022/04/14 01:03:22;;;;;;;;;3.75;2.50;;;;;;;;5082241;27;51022;-51
2022/04/14 01:06:10;;;;;;;;;5.50;3.00;;;;;;;;5077293;27;51405;-48
2022/04/14 01:11:59;;;;;;;;;3.75;3.00;;;;;;;;5081845;27;51028;-50
2022/04/14 01:14:49;;;;;;;;;4.50;3.75;;;;;;;;5082521;27;51150;-50
2022/04/14 01:17:34;;;;;;;;;3.75;3.75;;;;;;;;5082644;27;51023;-51
2022/04/14 01:20:20;;;;;;;;;10.75;4.00;;;;;;;;5082339;27;51040;-46
2022/04/14 01:23:08;;;;;;;;;6.00;3.25;;;;;;;;5082550;27;51129;-50
2022/04/14 01:25:53;;;;;;;;;2.75;2.75;;;;;;;;5082078;27;51496;-50
2022/04/14 01:28:37;;;;;;;;;7.25;4.00;;;;;;;;5082013;27;51189;-50
2022/04/14 01:31:21;;;;;;;;;9.75;4.75;;;;;;;;5082556;27;51192;-50
2022/04/14 01:34:06;;;;;;;;;5.50;3.25;;;;;;;;5082356;27;51070;-51
2022/04/14 01:36:56;;;;;;;;;2.00;1.75;;;;;;;;5081945;27;51436;-48
2022/04/14 01:39:50;;;;;;;;;5.00;3.50;;;;;;;;5067603;27;51241;-47
2022/04/14 01:42:49;;;;;;;;;9.50;3.50;;;;;;;;5082064;27;51106;-49
2022/04/14 01:45:55;;;;;;;;;11.25;5.75;;;;;;;;5081947;27;51166;-52
2022/04/14 01:48:41;;;;;;;;;6.25;3.00;;;;;;;;5082257;27;51068;-50
2022/04/14 01:51:29;;;;;;;;;10.50;5.00;;;;;;;;5081528;27;51418;-52
2022/04/14 01:54:13;;;;;;;;;9.75;5.00;;;;;;;;5076086;27;51109;-49
2022/04/14 01:57:07;;;;;;;;;5.00;4.00;;;;;;;;5081948;27;51337;-49
2022/04/14 01:59:52;;;;;;;;;6.50;2.50;;;;;;;;5082054;27;51056;-50
2022/04/14 02:02:36;;;;;;;;;6.25;3.25;;;;;;;;5081454;27;52955;-49
2022/04/14 02:05:41;;;;;;;;;4.75;3.00;;;;;;;;5081758;27;51073;-49
2022/04/14 02:08:26;;;;;;;;;9.25;4.75;;;;;;;;5081242;27;51229;-53
2022/04/14 02:11:11;;;;;;;;;5.50;4.75;;;;;;;;5081229;27;51088;-50
2022/04/14 02:13:57;;;;;;;;;7.00;3.75;;;;;;;;5082028;27;50980;-51
2022/04/14 02:16:43;;;;;;;;;3.75;3.00;;;;;;;;5081207;27;51072;-50
2022/04/14 02:19:27;;;;;;;;;5.50;4.25;;;;;;;;5081112;27;51074;-50
2022/04/14 02:22:20;;;;;;;;;6.00;5.00;;;;;;;;5081338;27;51110;-48
2022/04/14 02:25:05;;;;;;;;;9.25;4.75;;;;;;;;5077063;27;50949;-51
2022/04/14 02:27:49;;;;;;;;;14.00;8.00;;;;;;;;5080974;27;51534;-49
2022/04/14 02:30:34;;;;;;;;;10.50;7.25;;;;;;;;5081150;27;51094;-50
2022/04/14 02:33:18;;;;;;;;;13.00;12.00;;;;;;;;5079201;27;51567;-51
2022/04/14 02:36:03;;;;;;;;;14.75;11.75;;;;;;;;5080288;27;51100;-49
2022/04/14 02:38:48;;;;;;;;;17.00;12.50;;;;;;;;5081101;27;51034;-49
2022/04/14 02:41:32;;;;;;;;;17.25;11.75;;;;;;;;5080435;27;51080;-50
2022/04/14 02:44:22;;;;;;;;;18.00;16.25;;;;;;;;5081012;27;51017;-51
2022/04/14 02:47:07;;;;;;;;;20.50;15.25;;;;;;;;5080741;27;51599;-48
2022/04/14 02:49:51;;;;;;;;;14.00;13.00;;;;;;;;5080881;27;51324;-49
2022/04/14 02:52:38;;;;;;;;;19.25;15.00;;;;;;;;5080345;27;51096;-49
2022/04/14 02:55:26;;;;;;;;;18.25;15.25;;;;;;;;5080512;27;51176;-48
2022/04/14 02:58:12;;;;;;;;;20.25;14.00;;;;;;;;5080187;27;51604;-50
2022/04/14 03:00:56;;;;;;;;;22.00;17.50;;;;;;;;5080445;27;51299;-49
2022/04/14 03:03:42;;;;;;;;;22.25;17.25;;;;;;;;5080736;27;51146;-48
2022/04/14 03:06:28;;;;;;;;;18.50;17.00;;;;;;;;5080040;27;51199;-48
2022/04/14 03:09:12;;;;;;;;;21.25;17.25;;;;;;;;5080319;27;51216;-48
2022/04/14 03:11:56;;;;;;;;;20.75;19.00;;;;;;;;5080235;27;51070;-51
2022/04/14 03:14:41;;;;;;;;;26.25;21.00;;;;;;;;5080312;27;51102;-49
2022/04/14 03:17:26;;;;;;;;;25.50;19.50;;;;;;;;5079985;27;51261;-50
2022/04/14 03:20:11;;;;;;;;;27.50;19.00;;;;;;;;5077305;27;51037;-49
2022/04/14 03:22:56;;;;;;;;;32.25;23.00;;;;;;;;5080373;27;51116;-49
2022/04/14 03:25:40;;;;;;;;;22.00;21.00;;;;;;;;5079331;27;51046;-48
2022/04/14 03:28:26;;;;;;;;;26.25;22.00;;;;;;;;5080325;27;51012;-50
2022/04/14 03:31:10;;;;;;;;;24.00;20.25;;;;;;;;5076828;27;51142;-49
2022/04/14 03:33:54;;;;;;;;;21.00;17.75;;;;;;;;5080171;27;51134;-53
2022/04/14 03:36:44;;;;;;;;;22.00;18.25;;;;;;;;5079857;27;51098;-48
2022/04/14 03:39:31;;;;;;;;;19.00;18.00;;;;;;;;5079865;27;51073;-49
2022/04/14 03:42:17;;;;;;;;;17.50;16.25;;;;;;;;5079974;27;51503;-51
2022/04/14 03:45:03;;;;;;;;;16.75;15.50;;;;;;;;5079665;27;51127;-49
2022/04/14 03:47:51;;;;;;;;;21.00;14.75;;;;;;;;5079507;27;51115;-51
2022/04/14 03:50:36;;;;;;;;;21.75;18.75;;;;;;;;5077291;27;51194;-49
2022/04/14 03:53:22;;;;;;;;;18.50;17.25;;;;;;;;5076453;28;51048;-52
2022/04/14 03:56:16;;;;;;;;;17.50;14.50;;;;;;;;5078634;28;51461;-50
2022/04/14 03:59:01;;;;;;;;;18.75;15.00;;;;;;;;5079632;28;51065;-51
2022/04/14 04:01:59;;;;;;;;;16.00;13.50;;;;;;;;5079382;28;51027;-51
2022/04/14 04:04:44;;;;;;;;;21.00;17.50;;;;;;;;5079996;28;51099;-48
2022/04/14 04:07:30;;;;;;;;;17.00;15.25;;;;;;;;5079509;28;51135;-52
2022/04/14 04:10:17;;;;;;;;;20.00;16.75;;;;;;;;5079567;28;51017;-50
2022/04/14 04:13:01;;;;;;;;;18.00;15.00;;;;;;;;5079607;28;51274;-49
2022/04/14 04:16:00;;;;;;;;;17.00;14.50;;;;;;;;5079522;28;51051;-47
2022/04/14 04:18:45;;;;;;;;;16.25;16.00;;;;;;;;5079932;28;51207;-50
2022/04/14 04:21:33;;;;;;;;;18.00;15.75;;;;;;;;5075531;28;51039;-49
2022/04/14 04:24:29;;;;;;;;;21.00;16.75;;;;;;;;5073696;28;51169;-49
2022/04/14 04:27:26;;;;;;;;;14.25;13.50;;;;;;;;5043368;28;51192;-52
2022/04/14 04:30:30;;;;;;;;;17.00;15.25;;;;;;;;5070758;28;51223;-50
2022/04/14 04:33:17;;;;;;;;;15.25;14.00;;;;;;;;5077872;28;51161;-50
2022/04/14 04:36:02;;;;;;;;;19.75;15.50;;;;;;;;5079056;27;51167;-49
2022/04/14 04:38:47;;;;;;;;;16.25;14.75;;;;;;;;5079870;27;51186;-53
2022/04/14 04:41:31;;;;;;;;;20.25;18.00;;;;;;;;5082848;27;51080;-52
2022/04/14 04:44:16;;;;;;;;;24.25;17.75;;;;;;;;5083111;27;51051;-49
2022/04/14 04:47:10;;;;;;;;;26.75;21.50;;;;;;;;5083039;27;51056;-53
2022/04/14 04:49:56;;;;;;;;;21.75;17.50;;;;;;;;5083055;27;51198;-47
2022/04/14 04:52:47;;;;;;;;;20.50;16.00;;;;;;;;5076747;27;51417;-52
2022/04/14 04:55:34;;;;;;;;;15.75;15.00;;;;;;;;5082131;27;51150;-52
2022/04/14 04:58:18;;;;;;;;;19.50;14.50;;;;;;;;5082358;27;51155;-49
2022/04/14 05:01:05;;;;;;;;;22.00;18.00;;;;;;;;5082713;27;51080;-51
2022/04/14 05:03:49;;;;;;;;;20.75;18.75;;;;;;;;5082951;27;50988;-51
2022/04/14 05:06:38;;;;;;;;;19.25;17.75;;;;;;;;5080547;27;51059;-50
2022/04/14 05:09:23;;;;;;;;;21.00;17.75;;;;;;;;5082944;27;51189;-49
2022/04/14 05:12:08;;;;;;;;;23.00;19.25;;;;;;;;5078366;27;51466;-47
2022/04/14 05:14:52;;;;;;;;;22.50;22.00;;;;;;;;5082550;27;51173;-50
2022/04/14 05:17:47;;;;;;;;;25.25;22.75;;;;;;;;5082141;27;51371;-53
2022/04/14 05:20:31;;;;;;;;;26.75;23.00;;;;;;;;5067343;27;51127;-49
2022/04/14 05:23:16;;;;;;;;;24.25;20.25;;;;;;;;5082267;27;51167;-48
2022/04/14 05:26:01;;;;;;;;;26.00;23.00;;;;;;;;5074008;27;51075;-48
2022/04/14 05:28:46;;;;;;;;;34.50;26.50;;;;;;;;5079752;27;51555;-51
2022/04/14 05:31:30;;;;;;;;;37.75;32.75;;;;;;;;5082065;27;51137;-48
2022/04/14 05:34:15;;;;;;;;;43.25;35.00;;;;;;;;5082394;27;51157;-49
2022/04/14 05:36:59;;;;;;;;;50.50;39.75;;;;;;;;5081721;27;51182;-49
2022/04/14 05:39:44;;;;;;;;;53.50;40.50;;;;;;;;5081909;27;51039;-50
2022/04/14 05:42:31;;;;;;;;;49.25;41.25;;;;;;;;5066601;27;51147;-50
2022/04/14 05:45:15;;;;;;;;;51.25;40.25;;;;;;;;5076253;27;51157;-48
2022/04/14 05:48:01;;;;;;;;;22.75;14.50;;;;;;;;5081183;27;51533;-49
2022/04/14 05:50:47;;;;;;;;;55.50;43.00;;;;;;;;5081827;27;51142;-51
2022/04/14 05:53:31;;;;;;;;;51.25;42.75;;;;;;;;5082041;27;51586;-48
2022/04/14 05:56:17;;;;;;;;;47.25;39.25;;;;;;;;5075653;27;51158;-49
2022/04/14 05:59:01;;;;;;;;;45.75;38.00;;;;;;;;5080941;27;51016;-46
2022/04/14 06:01:46;;;;;;;;;46.75;38.50;;;;;;;;5062905;27;51416;-53
2022/04/14 06:04:30;;;;;;;;;52.75;42.25;;;;;;;;5079035;27;51228;-46
2022/04/14 06:07:14;;;;;;;;;47.00;38.00;;;;;;;;5080679;27;51040;-48
2022/04/14 06:09:59;;;;;;;;;49.00;38.00;;;;;;;;5078628;27;51162;-47
2022/04/14 06:12:44;;;;;;;;;43.25;34.25;;;;;;;;5081554;27;51065;-49
2022/04/14 06:15:31;;;;;;;;;46.75;37.25;;;;;;;;5081384;27;51104;-47
2022/04/14 06:18:15;;;;;;;;;49.50;39.25;;;;;;;;5081330;27;51699;-50
2022/04/14 06:21:00;;;;;;;;;50.75;38.50;;;;;;;;5081253;27;51079;-47
2022/04/14 06:23:44;;;;;;;;;49.50;38.75;;;;;;;;5081632;27;51244;-47
2022/04/14 06:26:29;;;;;;;;;47.75;39.00;;;;;;;;5072641;27;51464;-51
2022/04/14 06:29:13;;;;;;;;;49.50;41.00;;;;;;;;5080402;27;51630;-52
2022/04/14 06:31:58;;;;;;;;;43.25;35.25;;;;;;;;5068051;27;51192;-47
2022/04/14 06:34:42;;;;;;;;;46.75;38.00;;;;;;;;5076751;27;51092;-49
2022/04/14 06:37:29;;;;;;;;;45.75;35.00;;;;;;;;5079209;27;51115;-50
2022/04/14 06:40:14;;;;;;;;;42.50;35.00;;;;;;;;5075893;27;51102;-46
2022/04/14 06:42:59;;;;;;;;;41.75;33.00;;;;;;;;5063089;27;51720;-49
2022/04/14 06:45:46;;;;;;;;;43.50;36.50;;;;;;;;5075281;27;51115;-49
2022/04/14 06:48:31;;;;;;;;;39.75;33.50;;;;;;;;5080417;27;51101;-50
2022/04/14 06:51:15;;;;;;;;;41.75;33.50;;;;;;;;5072178;27;51190;-50
2022/04/14 06:53:59;;;;;;;;;43.00;35.50;;;;;;;;5077802;27;51517;-49
2022/04/14 06:56:44;;;;;;;;;42.50;32.50;;;;;;;;5078818;27;51115;-49
2022/04/14 06:59:28;;;;;;;;;48.00;35.50;;;;;;;;5078515;27;51162;-49
2022/04/14 07:02:13;;;;;;;;;48.25;36.75;;;;;;;;5078089;27;51402;-47
2022/04/14 07:04:58;;;;;;;;;42.75;33.00;;;;;;;;5073719;27;51150;-50
2022/04/14 07:07:44;;;;;;;;;40.75;31.75;;;;;;;;5073715;27;51584;-49
2022/04/14 07:10:32;;;;;;;;;36.50;28.75;;;;;;;;5076639;27;51012;-50
2022/04/14 07:13:37;;;;;;;;;39.50;30.00;;;;;;;;5077302;27;51187;-50
2022/04/14 07:16:25;;;;;;;;;40.50;34.00;;;;;;;;5075939;27;51119;-50
2022/04/14 07:19:10;;;;;;;;;35.75;30.50;;;;;;;;5074727;27;51532;-51
2022/04/14 07:22:05;;;;;;;;;41.50;29.50;;;;;;;;5077399;27;51095;-48
2022/04/14 07:24:50;;;;;;;;;32.00;28.75;;;;;;;;5075076;27;51179;-52
2022/04/14 07:27:53;;;;;;;;;30.50;26.25;;;;;;;;5075454;27;51182;-51
2022/04/14 07:31:02;;;;;;;;;28.00;26.00;;;;;;;;5076078;27;51174;-52
2022/04/14 07:33:51;;;;;;;;;31.25;27.75;;;;;;;;5074434;27;51271;-51
2022/04/14 07:36:36;;;;;;;;;31.75;28.50;;;;;;;;5079454;27;51150;-51
2022/04/14 07:39:41;;;;;;;;;22.00;18.75;;;;;;;;5078687;27;50990;-50
2022/04/14 07:42:32;;;;;;;;;21.25;18.50;;;;;;;;5077044;27;51154;-50
2022/04/14 07:45:23;;;;;;;;;26.00;21.00;;;;;;;;5078474;27;51188;-51
2022/04/14 07:48:29;;;;;;;;;25.00;22.25;;;;;;;;5074231;27;50988;-49
2022/04/14 07:51:14;;;;;;;;;18.00;15.25;;;;;;;;5072444;27;51045;-48
2022/04/14 07:54:01;;;;;;;;;20.50;18.75;;;;;;;;5071706;27;51612;-54
2022/04/14 07:56:45;;;;;;;;;16.25;14.00;;;;;;;;5076401;28;51061;-48
2022/04/14 07:59:29;;;;;;;;;24.25;17.50;;;;;;;;5076307;28;51078;-47
2022/04/14 08:02:15;;;;;;;;;9.50;8.50;;;;;;;;5073279;28;51017;-52
2022/04/14 08:05:02;;;;;;;;;10.75;9.00;;;;;;;;5077268;28;51112;-51
2022/04/14 08:07:49;;;;;;;;;15.50;11.50;;;;;;;;5071238;28;51072;-50
2022/04/14 08:10:34;;;;;;;;;12.25;8.50;;;;;;;;5076805;27;51232;-50
2022/04/14 08:13:20;;;;;;;;;11.50;8.50;;;;;;;;5082925;27;51110;-52
2022/04/14 08:16:09;;;;;;;;;8.25;6.00;;;;;;;;5082866;27;51071;-46
2022/04/14 08:18:54;;;;;;;;;10.00;8.00;;;;;;;;5065724;27;51090;-48
2022/04/14 08:21:40;;;;;;;;;7.25;7.00;;;;;;;;5082130;27;51174;-48
2022/04/14 08:24:28;;;;;;;;;11.00;8.50;;;;;;;;5082068;27;51420;-49
2022/04/14 08:27:13;;;;;;;;;10.50;6.75;;;;;;;;5081595;27;51214;-45
2022/04/14 08:29:59;;;;;;;;;5.00;5.00;;;;;;;;5080565;27;51126;-50
2022/04/14 08:32:43;;;;;;;;;7.50;5.75;;;;;;;;5065286;27;51364;-47
2022/04/14 08:35:55;;;;;;;;;4.00;4.00;;;;;;;;5082295;27;51143;-49
2022/04/14 08:38:44;;;;;;;;;8.50;4.50;;;;;;;;5076956;27;51503;-51
2022/04/14 08:41:30;;;;;;;;;13.75;3.50;;;;;;;;5081767;27;51723;-52
2022/04/14 08:44:18;;;;;;;;;2.75;1.00;;;;;;;;5081317;27;51086;-49
2022/04/14 08:47:03;;;;;;;;;5.00;5.00;;;;;;;;5081971;27;51198;-50
2022/04/14 08:49:49;;;;;;;;;5.75;4.50;;;;;;;;5080205;27;51274;-48
2022/04/14 08:52:34;;;;;;;;;7.00;5.50;;;;;;;;5077513;27;51173;-52
2022/04/14 08:55:19;;;;;;;;;7.25;6.50;;;;;;;;5082386;27;50977;-52
2022/04/14 08:58:03;;;;;;;;;7.00;5.00;;;;;;;;5081829;27;51557;-48
2022/04/14 09:00:56;;;;;;;;;10.00;7.50;;;;;;;;5078936;27;51358;-50
2022/04/14 09:03:42;;;;;;;;;3.75;3.75;;;;;;;;5081226;27;51149;-49
2022/04/14 09:06:29;;;;;;;;;6.25;6.25;;;;;;;;5082147;27;51151;-48
2022/04/14 09:09:20;;;;;;;;;8.00;6.75;;;;;;;;5080604;27;51123;-49
2022/04/14 09:12:08;;;;;;;;;13.75;7.50;;;;;;;;5081989;27;51117;-47
2022/04/14 09:14:54;;;;;;;;;8.00;5.25;;;;;;;;5077678;27;51435;-49
2022/04/14 09:17:44;;;;;;;;;9.00;6.00;;;;;;;;5081102;27;51055;-48
2022/04/14 09:20:38;;;;;;;;;5.25;4.25;;;;;;;;5075220;27;51091;-51
2022/04/14 09:23:27;;;;;;;;;5.75;5.75;;;;;;;;5079456;27;51126;-47
2022/04/14 09:26:13;;;;;;;;;5.00;2.75;;;;;;;;5080378;27;51474;-50
2022/04/14 09:29:10;;;;;;;;;7.75;4.50;;;;;;;;5079095;27;51154;-50
2022/04/14 09:31:55;;;;;;;;;8.00;5.00;;;;;;;;5080915;27;51155;-50
2022/04/14 09:35:02;;;;;;;;;4.50;3.25;;;;;;;;5081069;27;51422;-49
2022/04/14 09:38:00;;;;;;;;;5.50;3.75;;;;;;;;5080647;27;51149;-48
2022/04/14 09:40:47;;;;;;;;;3.00;3.00;;;;;;;;5080391;27;50953;-50
2022/04/14 09:43:54;;;;;;;;;4.25;4.00;;;;;;;;5081304;27;51185;-47
2022/04/14 09:47:03;;;;;;;;;4.75;4.75;;;;;;;;5081367;27;51114;-51
2022/04/14 09:50:10;;;;;;;;;9.25;6.00;;;;;;;;5077945;27;51372;-47
2022/04/14 09:53:14;;;;;;;;;9.75;4.00;;;;;;;;5080722;27;51453;-51
2022/04/14 09:56:03;;;;;;;;;3.25;3.25;;;;;;;;5080882;27;51197;-47
2022/04/14 09:58:49;;;;;;;;;7.00;4.75;;;;;;;;5080618;27;51095;-48
2022/04/14 10:01:34;;;;;;;;;3.00;3.00;;;;;;;;5079993;27;51504;-52
2022/04/14 10:04:29;;;;;;;;;7.50;6.50;;;;;;;;5080115;27;51136;-52
2022/04/14 10:07:20;;;;;;;;;6.50;6.50;;;;;;;;5080956;27;51068;-50
2022/04/14 10:10:20;;;;;;;;;5.50;5.00;;;;;;;;5076864;27;52327;-49
2022/04/14 10:13:06;;;;;;;;;7.75;7.50;;;;;;;;5081877;27;51102;-50
2022/04/14 10:16:13;;;;;;;;;6.25;6.00;;;;;;;;5081307;27;51429;-49
2022/04/14 10:19:02;;;;;;;;;8.25;7.25;;;;;;;;5081442;27;51118;-49
2022/04/14 10:22:00;;;;;;;;;12.25;6.25;;;;;;;;5080075;27;51162;-47
2022/04/14 10:24:47;;;;;;;;;5.75;4.25;;;;;;;;5080690;27;51197;-48
2022/04/14 10:27:33;;;;;;;;;7.75;4.00;;;;;;;;5080677;27;51119;-48
2022/04/14 10:30:19;;;;;;;;;3.50;2.00;;;;;;;;5081136;27;51033;-48
2022/04/14 10:33:06;;;;;;;;;3.75;2.25;;;;;;;;5081267;27;51329;-49
2022/04/14 10:36:04;;;;;;;;;4.00;3.25;;;;;;;;5076506;27;51089;-49
2022/04/14 10:38:49;;;;;;;;;6.25;6.00;;;;;;;;5081355;27;51150;-49
2022/04/14 10:41:36;;;;;;;;;3.75;2.00;;;;;;;;5081147;27;51363;-48
2022/04/14 10:44:22;;;;;;;;;6.75;5.50;;;;;;;;5081183;27;51518;-51
2022/04/14 10:47:09;;;;;;;;;31.00;27.00;;;;;;;;5080455;27;51191;-50
2022/04/14 10:49:54;;;;;;;;;7.75;7.00;;;;;;;;5081054;27;51113;-50
2022/04/14 10:53:00;;;;;;;;;6.00;5.75;;;;;;;;5077049;27;51575;-52
2022/04/14 10:55:54;;;;;;;;;10.25;10.00;;;;;;;;5080656;27;51140;-50
2022/04/14 10:58:38;;;;;;;;;10.75;8.75;;;;;;;;5080739;27;51103;-50
2022/04/14 11:01:41;;;;;;;;;7.00;7.00;;;;;;;;5080238;27;51241;-50
2022/04/14 11:04:26;;;;;;;;;16.00;14.00;;;;;;;;5080829;27;51045;-50
2022/04/14 11:07:13;;;;;;;;;27.25;25.75;;;;;;;;5080311;27;51511;-51
2022/04/14 11:10:08;;;;;;;;;20.50;19.25;;;;;;;;5080394;27;51549;-47
2022/04/14 11:12:57;;;;;;;;;11.00;11.00;;;;;;;;5080764;27;51198;-51
2022/04/14 11:16:03;;;;;;;;;14.00;11.75;;;;;;;;5080705;27;51090;-50
2022/04/14 11:19:25;;;;;;;;;37.50;32.75;;;;;;;;5079986;27;51492;-51
2022/04/14 11:22:13;;;;;;;;;23.25;23.25;;;;;;;;5079862;27;51150;-51
2022/04/14 11:24:58;;;;;;;;;19.00;18.25;;;;;;;;5080255;27;51181;-51
2022/04/14 11:28:06;;;;;;;;;12.75;11.25;;;;;;;;5078701;27;51118;-50
2022/04/14 11:31:05;;;;;;;;;9.25;8.00;;;;;;;;5080388;27;51499;-51
2022/04/14 11:34:02;;;;;;;;;10.50;7.50;;;;;;;;5080192;27;51087;-51
2022/04/14 11:36:50;;;;;;;;;13.00;12.50;;;;;;;;5080177;27;51047;-50
2022/04/14 11:39:38;;;;;;;;;13.50;11.25;;;;;;;;5079762;27;51084;-50
2022/04/14 11:42:38;;;;;;;;;16.25;14.25;;;;;;;;5078674;27;51055;-49
2022/04/14 11:45:27;;;;;;;;;15.25;14.50;;;;;;;;5079000;27;51593;-53
2022/04/14 11:48:13;;;;;;;;;17.50;15.50;;;;;;;;5078635;27;51135;-47
2022/04/14 11:50:58;;;;;;;;;14.00;12.50;;;;;;;;5073648;27;51186;-49
2022/04/14 11:53:44;;;;;;;;;13.50;12.25;;;;;;;;5078874;27;51135;-50
2022/04/14 11:56:31;;;;;;;;;17.50;16.50;;;;;;;;5079808;28;51007;-47
2022/04/14 11:59:35;;;;;;;;;19.25;12.75;;;;;;;;5079779;28;51054;-49
2022/04/14 12:02:21;;;;;;;;;16.25;14.25;;;;;;;;5079696;28;51480;-49
2022/04/14 12:05:22;;;;;;;;;11.75;11.75;;;;;;;;5079760;28;51124;-47
2022/04/14 12:08:10;;;;;;;;;15.00;15.00;;;;;;;;5079849;28;51211;-50
2022/04/14 12:10:55;;;;;;;;;28.25;21.75;;;;;;;;5079341;28;51174;-49
2022/04/14 12:13:42;;;;;;;;;14.75;14.00;;;;;;;;5079315;28;51138;-50
2022/04/14 12:16:33;;;;;;;;;19.75;18.00;;;;;;;;5079682;28;51630;-49
2022/04/14 12:19:22;;;;;;;;;8.75;6.25;;;;;;;;5079504;28;51179;-49
2022/04/14 12:22:14;;;;;;;;;3.50;3.50;;;;;;;;5065082;28;51068;-50
2022/04/14 12:25:06;;;;;;;;;1.75;1.00;;;;;;;;5078984;28;51141;-52
2022/04/14 12:27:51;;;;;;;;;0.50;0.50;;;;;;;;5079313;28;51023;-50
2022/04/14 12:30:54;;;;;;;;;0.75;0.75;;;;;;;;5079118;28;51142;-50
2022/04/14 12:33:39;;;;;;;;;2.00;0.00;;;;;;;;5079796;28;51063;-51
2022/04/14 12:36:46;;;;;;;;;0.75;0.75;;;;;;;;5079497;28;51135;-50
2022/04/14 12:39:30;;;;;;;;;0.25;0.25;;;;;;;;5079406;28;51258;-47
2022/04/14 12:42:21;;;;;;;;;1.25;0.50;;;;;;;;5073508;28;51085;-48
2022/04/14 12:45:06;;;;;;;;;1.00;0.00;;;;;;;;5079211;28;51103;-49
2022/04/14 12:47:50;;;;;;;;;2.00;0.25;;;;;;;;5079230;28;51025;-49
2022/04/14 12:50:35;;;;;;;;;0.00;0.00;;;;;;;;5079524;28;51129;-49
2022/04/14 12:53:25;;;;;;;;;0.00;0.00;;;;;;;;5079456;28;51154;-51
2022/04/14 12:56:10;;;;;;;;;2.50;1.75;;;;;;;;5038337;28;51033;-48
2022/04/14 12:59:06;;;;;;;;;1.00;0.00;;;;;;;;5041339;28;51076;-49
2022/04/14 13:02:15;;;;;;;;;2.50;2.50;;;;;;;;5042267;28;51075;-49
2022/04/14 13:05:16;;;;;;;;;3.25;1.00;;;;;;;;5040838;28;51132;-51
2022/04/14 13:08:00;;;;;;;;;2.25;0.50;;;;;;;;5042266;28;51040;-49
2022/04/14 13:10:49;;;;;;;;;0.00;0.00;;;;;;;;5042299;28;51118;-49
2022/04/14 13:13:35;;;;;;;;;1.50;0.50;;;;;;;;5042379;28;51169;-50
2022/04/14 13:16:20;;;;;;;;;5.50;0.50;;;;;;;;5042056;28;51135;-51
2022/04/14 13:19:13;;;;;;;;;4.25;1.25;;;;;;;;5041767;28;51158;-48
2022/04/14 13:22:09;;;;;;;;;1.00;0.75;;;;;;;;5041614;28;51025;-50
2022/04/14 13:25:11;;;;;;;;;1.25;1.25;;;;;;;;5042176;28;51096;-51
2022/04/14 13:27:59;;;;;;;;;2.00;1.75;;;;;;;;5041826;28;51152;-51
2022/04/14 13:30:54;;;;;;;;;2.00;2.00;;;;;;;;5037009;28;51211;-50
2022/04/14 13:33:42;;;;;;;;;4.50;2.00;;;;;;;;5041751;28;51047;-50
2022/04/14 13:36:33;;;;;;;;;2.00;1.75;;;;;;;;5042068;28;51092;-48
2022/04/14 13:39:32;;;;;;;;;3.00;2.25;;;;;;;;5041344;28;51331;-50
2022/04/14 13:42:17;;;;;;;;;2.25;1.25;;;;;;;;5041370;28;51153;-48
2022/04/14 13:45:11;;;;;;;;;4.00;1.50;;;;;;;;5041892;28;51186;-50
2022/04/14 13:47:56;;;;;;;;;2.00;0.25;;;;;;;;5040190;28;52003;-47
2022/04/14 13:50:43;;;;;;;;;1.50;1.50;;;;;;;;5035780;28;51060;-51
2022/04/14 13:53:33;;;;;;;;;2.75;1.00;;;;;;;;5040450;28;51024;-50
2022/04/14 13:56:18;;;;;;;;;3.75;2.00;;;;;;;;5040782;28;51057;-47
2022/04/14 13:59:02;;;;;;;;;0.00;0.00;;;;;;;;5041736;28;51451;-50
2022/04/14 14:01:48;;;;;;;;;2.00;1.00;;;;;;;;5035416;28;51150;-49
2022/04/14 14:04:35;;;;;;;;;0.25;0.25;;;;;;;;5041067;28;51338;-46
2022/04/14 14:07:20;;;;;;;;;1.00;1.00;;;;;;;;5041298;28;51135;-50
2022/04/14 14:10:09;;;;;;;;;1.00;1.00;;;;;;;;5040570;28;51444;-50
2022/04/14 14:12:55;;;;;;;;;3.00;0.00;;;;;;;;5041194;28;51225;-48
2022/04/14 14:15:42;;;;;;;;;1.50;1.50;;;;;;;;5041453;28;51218;-50
2022/04/14 14:18:48;;;;;;;;;3.00;1.50;;;;;;;;5040892;28;51069;-48
2022/04/14 14:21:33;;;;;;;;;1.00;1.00;;;;;;;;5040934;28;50999;-48
2022/04/14 14:24:40;;;;;;;;;1.00;0.75;;;;;;;;5041230;28;51124;-51
2022/04/14 14:27:25;;;;;;;;;2.75;2.00;;;;;;;;5040998;28;51078;-50
2022/04/14 14:30:12;;;;;;;;;0.25;0.25;;;;;;;;5040771;28;51150;-51
2022/04/14 14:33:18;;;;;;;;;1.25;1.25;;;;;;;;5039690;28;51124;-48
2022/04/14 14:36:26;;;;;;;;;3.00;1.50;;;;;;;;5040627;28;51091;-51
2022/04/14 14:39:11;;;;;;;;;1.00;1.00;;;;;;;;5038274;28;51160;-51
2022/04/14 14:41:59;;;;;;;;;2.25;0.25;;;;;;;;5040964;28;51106;-50
2022/04/14 14:44:45;;;;;;;;;1.00;1.00;;;;;;;;5040131;28;51153;-50
2022/04/14 14:47:31;;;;;;;;;2.00;0.00;;;;;;;;5040368;28;51074;-51
2022/04/14 14:50:15;;;;;;;;;2.00;1.75;;;;;;;;5040552;28;51353;-50
2022/04/14 14:53:01;;;;;;;;;1.50;1.50;;;;;;;;5040327;28;51114;-49
2022/04/14 14:55:45;;;;;;;;;2.75;1.25;;;;;;;;5075069;27;51566;-49
2022/04/14 15:01:36;;;;;;;;;4.00;1.75;;;;;;;;5080287;27;51120;-52
2022/04/14 15:04:22;;;;;;;;;0.00;0.00;;;;;;;;5080225;27;51166;-47
2022/04/14 15:07:15;;;;;;;;;1.00;1.00;;;;;;;;5080981;27;51447;-47
2022/04/14 15:10:05;;;;;;;;;3.00;1.00;;;;;;;;5079989;27;51450;-50
2022/04/14 15:12:51;;;;;;;;;1.00;1.00;;;;;;;;5080339;27;51118;-50
2022/04/14 15:15:35;;;;;;;;;0.75;0.00;;;;;;;;5080553;27;51364;-50
2022/04/14 15:18:19;;;;;;;;;2.75;1.00;;;;;;;;5080743;27;51032;-49
2022/04/14 15:21:11;;;;;;;;;4.00;2.00;;;;;;;;5079452;27;51028;-50
2022/04/14 15:24:04;;;;;;;;;0.75;0.00;;;;;;;;5080117;27;51092;-51
2022/04/14 15:26:49;;;;;;;;;4.50;2.25;;;;;;;;5080254;27;51492;-47
2022/04/14 15:29:37;;;;;;;;;2.25;2.25;;;;;;;;5078079;27;51137;-48
2022/04/14 15:32:24;;;;;;;;;6.00;3.25;;;;;;;;5065172;27;51066;-53
2022/04/14 15:35:08;;;;;;;;;2.75;1.75;;;;;;;;5079906;27;51104;-50
2022/04/14 15:37:55;;;;;;;;;3.50;1.50;;;;;;;;5064726;27;51183;-49
2022/04/14 15:40:50;;;;;;;;;3.50;2.25;;;;;;;;5079764;27;51517;-47
2022/04/14 15:43:54;;;;;;;;;2.75;2.50;;;;;;;;5079927;27;51131;-50
2022/04/14 15:46:54;;;;;;;;;2.00;2.00;;;;;;;;5079872;27;51127;-51
2022/04/14 15:49:38;;;;;;;;;1.25;0.75;;;;;;;;5080160;27;51156;-51
2022/04/14 15:52:31;;;;;;;;;7.75;3.25;;;;;;;;5079246;27;51085;-47
2022/04/14 15:55:15;;;;;;;;;2.00;2.00;;;;;;;;5079136;27;51207;-50
2022/04/14 15:58:01;;;;;;;;;5.75;2.75;;;;;;;;5080533;28;51240;-51
2022/04/14 16:00:46;;;;;;;;;2.50;2.50;;;;;;;;5079742;28;51481;-51
2022/04/14 16:03:32;;;;;;;;;10.00;10.00;;;;;;;;5079512;28;51127;-50
2022/04/14 16:06:18;;;;;;;;;6.00;3.00;;;;;;;;5079442;28;51074;-50
2022/04/14 16:09:05;;;;;;;;;5.50;2.25;;;;;;;;5080040;28;51100;-51
2022/04/14 16:12:06;;;;;;;;;2.00;2.00;;;;;;;;5079394;28;51001;-50
2022/04/14 16:14:51;;;;;;;;;6.00;3.00;;;;;;;;5079375;28;51143;-47
2022/04/14 16:17:36;;;;;;;;;3.50;2.00;;;;;;;;5079194;28;51294;-49
2022/04/14 16:20:26;;;;;;;;;5.00;2.75;;;;;;;;5064275;28;51453;-50
2022/04/14 16:23:10;;;;;;;;;1.75;1.75;;;;;;;;5080155;28;51134;-51
2022/04/14 16:26:06;;;;;;;;;0.75;0.75;;;;;;;;5079562;28;51418;-49
2022/04/14 16:29:08;;;;;;;;;4.00;2.75;;;;;;;;5076335;28;51153;-52
2022/04/14 16:31:57;;;;;;;;;4.75;2.75;;;;;;;;5080313;27;51202;-49
2022/04/14 16:34:53;;;;;;;;;4.75;2.25;;;;;;;;5083686;27;52160;-47
2022/04/14 16:37:39;;;;;;;;;4.50;2.25;;;;;;;;5083131;27;51074;-50
2022/04/14 16:40:24;;;;;;;;;3.75;3.00;;;;;;;;5083487;27;51198;-50
2022/04/14 16:43:19;;;;;;;;;4.00;2.25;;;;;;;;5083544;27;51075;-46
2022/04/14 16:46:03;;;;;;;;;2.75;1.75;;;;;;;;5083194;27;51114;-51